sensor_id;sensor_type;location;lat;lon;timestamp;temperature;humidity
63407;SHT31;49543;45.892;10.838;2022-07-03T09:28:51;34.16;49.39
63407;SHT31;49543;45.892;10.838;2022-07-03T09:31:22;34.34;49.13
63407;SHT31;49543;45.892;10.838;2022-07-03T09:34:07;34.49;48.37
63407;SHT31;49543;45.892;10.838;2022-07-03T09:36:47;34.65;48.39
63407;SHT31;49543;45.892;10.838;2022-07-03T09:44:35;34.86;46.20
63407;SHT31;49543;45.892;10.838;2022-07-03T09:47:17;34.92;46.03
63407;SHT31;49543;45.892;10.838;2022-07-03T09:52:37;34.59;45.33
63407;SHT31;49543;45.892;10.838;2022-07-03T09:57:39;34.62;46.31
63407;SHT31;49543;45.892;10.838;2022-07-03T10:03:01;34.43;46.81
63407;SHT31;49543;45.892;10.838;2022-07-03T10:08:16;34.40;48.78
63407;SHT31;49543;45.892;10.838;2022-07-03T10:10:48;34.13;48.89
63407;SHT31;49543;45.892;10.838;2022-07-03T10:13:14;33.58;50.64
63407;SHT31;49543;45.892;10.838;2022-07-03T10:15:41;33.39;51.07
63407;SHT31;49543;45.892;10.838;2022-07-03T10:18:12;33.59;51.40
63407;SHT31;49543;45.892;10.838;2022-07-03T10:20:46;33.52;51.27
63407;SHT31;49543;45.892;10.838;2022-07-03T10:23:11;33.82;50.71
63407;SHT31;49543;45.892;10.838;2022-07-03T10:25:41;34.25;50.30
63407;SHT31;49543;45.892;10.838;2022-07-03T10:28:07;34.11;53.07
63407;SHT31;49543;45.892;10.838;2022-07-03T10:30:32;34.28;53.03
63407;SHT31;49543;45.892;10.838;2022-07-03T10:32:58;34.91;52.10
63407;SHT31;49543;45.892;10.838;2022-07-03T10:35:34;34.29;52.48
63407;SHT31;49543;45.892;10.838;2022-07-03T10:40:59;33.82;53.50
63407;SHT31;49543;45.892;10.838;2022-07-03T10:43:46;34.45;53.52
63407;SHT31;49543;45.892;10.838;2022-07-03T10:46:31;34.75;52.94
63407;SHT31;49543;45.892;10.838;2022-07-03T10:49:06;35.59;50.65
63407;SHT31;49543;45.892;10.838;2022-07-03T10:54:14;38.51;44.52
63407;SHT31;49543;45.892;10.838;2022-07-03T11:03:14;40.43;41.80
63407;SHT31;49543;45.892;10.838;2022-07-03T11:05:25;41.46;41.36
63407;SHT31;49543;45.892;10.838;2022-07-03T11:15:34;40.10;40.44
63407;SHT31;49543;45.892;10.838;2022-07-03T11:39:07;36.26;48.15
63407;SHT31;49543;45.892;10.838;2022-07-03T11:44:03;34.59;52.15
63407;SHT31;49543;45.892;10.838;2022-07-03T11:46:30;34.10;53.28
63407;SHT31;49543;45.892;10.838;2022-07-03T11:49:13;33.66;54.10
63407;SHT31;49543;45.892;10.838;2022-07-03T11:51:53;33.52;54.06
63407;SHT31;49543;45.892;10.838;2022-07-03T11:54:18;33.27;53.73
63407;SHT31;49543;45.892;10.838;2022-07-03T11:56:44;33.51;53.61
63407;SHT31;49543;45.892;10.838;2022-07-03T11:59:09;33.63;52.90
63407;SHT31;49543;45.892;10.838;2022-07-03T12:01:37;33.52;52.61
63407;SHT31;49543;45.892;10.838;2022-07-03T12:04:19;33.32;52.32
63407;SHT31;49543;45.892;10.838;2022-07-03T12:06:52;33.41;51.95
63407;SHT31;49543;45.892;10.838;2022-07-03T12:09:20;33.45;51.46
63407;SHT31;49543;45.892;10.838;2022-07-03T12:17:11;33.35;51.17
63407;SHT31;49543;45.892;10.838;2022-07-03T12:19:37;33.38;51.08
63407;SHT31;49543;45.892;10.838;2022-07-03T12:22:04;33.22;51.82
63407;SHT31;49543;45.892;10.838;2022-07-03T12:24:30;33.32;52.17
63407;SHT31;49543;45.892;10.838;2022-07-03T12:26:55;33.34;51.51
63407;SHT31;49543;45.892;10.838;2022-07-03T12:29:21;33.42;52.17
63407;SHT31;49543;45.892;10.838;2022-07-03T12:31:47;33.38;52.38
63407;SHT31;49543;45.892;10.838;2022-07-03T12:34:15;33.18;52.54
63407;SHT31;49543;45.892;10.838;2022-07-03T12:36:53;33.29;52.58
63407;SHT31;49543;45.892;10.838;2022-07-03T12:39:19;33.35;52.56
63407;SHT31;49543;45.892;10.838;2022-07-03T12:41:44;33.06;52.92
63407;SHT31;49543;45.892;10.838;2022-07-03T12:44:10;33.15;52.48
63407;SHT31;49543;45.892;10.838;2022-07-03T12:46:35;33.34;52.20
63407;SHT31;49543;45.892;10.838;2022-07-03T12:49:11;33.46;52.22
63407;SHT31;49543;45.892;10.838;2022-07-03T12:51:52;33.48;52.31
63407;SHT31;49543;45.892;10.838;2022-07-03T12:57:05;33.51;52.56
63407;SHT31;49543;45.892;10.838;2022-07-03T13:00:03;33.31;52.18
63407;SHT31;49543;45.892;10.838;2022-07-03T13:02:28;33.28;53.19
63407;SHT31;49543;45.892;10.838;2022-07-03T13:04:54;33.14;53.82
63407;SHT31;49543;45.892;10.838;2022-07-03T13:07:19;33.11;53.77
63407;SHT31;49543;45.892;10.838;2022-07-03T13:09:52;33.18;54.32
63407;SHT31;49543;45.892;10.838;2022-07-03T13:12:21;33.29;53.47
63407;SHT31;49543;45.892;10.838;2022-07-03T13:15:00;33.34;53.50
63407;SHT31;49543;45.892;10.838;2022-07-03T13:20:23;33.42;54.24
63407;SHT31;49543;45.892;10.838;2022-07-03T13:22:55;33.28;54.45
63407;SHT31;49543;45.892;10.838;2022-07-03T13:25:21;32.86;54.74
63407;SHT31;49543;45.892;10.838;2022-07-03T13:27:46;32.91;54.99
63407;SHT31;49543;45.892;10.838;2022-07-03T13:30:16;32.98;55.04
63407;SHT31;49543;45.892;10.838;2022-07-03T13:32:42;33.18;54.56
63407;SHT31;49543;45.892;10.838;2022-07-03T13:35:08;33.17;54.28
63407;SHT31;49543;45.892;10.838;2022-07-03T13:37:34;33.24;53.98
63407;SHT31;49543;45.892;10.838;2022-07-03T13:40:00;33.35;54.03
63407;SHT31;49543;45.892;10.838;2022-07-03T13:42:26;33.41;53.41
63407;SHT31;49543;45.892;10.838;2022-07-03T13:44:52;33.56;52.53
63407;SHT31;49543;45.892;10.838;2022-07-03T13:47:17;33.69;53.00
63407;SHT31;49543;45.892;10.838;2022-07-03T13:49:43;33.85;53.03
63407;SHT31;49543;45.892;10.838;2022-07-03T13:52:08;33.93;52.94
63407;SHT31;49543;45.892;10.838;2022-07-03T13:54:34;34.00;51.60
63407;SHT31;49543;45.892;10.838;2022-07-03T13:57:00;34.10;51.78
63407;SHT31;49543;45.892;10.838;2022-07-03T13:59:26;34.11;51.85
63407;SHT31;49543;45.892;10.838;2022-07-03T14:01:52;34.13;52.16
63407;SHT31;49543;45.892;10.838;2022-07-03T14:04:17;34.03;52.74
63407;SHT31;49543;45.892;10.838;2022-07-03T14:06:42;33.86;53.44
63407;SHT31;49543;45.892;10.838;2022-07-03T14:09:08;33.79;53.61
63407;SHT31;49543;45.892;10.838;2022-07-03T14:11:33;33.82;53.58
63407;SHT31;49543;45.892;10.838;2022-07-03T14:13:59;33.85;53.65
63407;SHT31;49543;45.892;10.838;2022-07-03T14:16:24;33.80;53.88
63407;SHT31;49543;45.892;10.838;2022-07-03T14:18:49;33.68;54.65
63407;SHT31;49543;45.892;10.838;2022-07-03T14:21:15;33.32;55.77
63407;SHT31;49543;45.892;10.838;2022-07-03T14:23:40;33.17;56.53
63407;SHT31;49543;45.892;10.838;2022-07-03T14:26:06;33.14;56.43
63407;SHT31;49543;45.892;10.838;2022-07-03T14:28:31;32.92;56.65
63407;SHT31;49543;45.892;10.838;2022-07-03T14:31:15;33.06;55.81
63407;SHT31;49543;45.892;10.838;2022-07-03T14:34:01;33.01;55.53
63407;SHT31;49543;45.892;10.838;2022-07-03T14:36:27;33.08;55.45
63407;SHT31;49543;45.892;10.838;2022-07-03T14:38:52;33.21;55.12
63407;SHT31;49543;45.892;10.838;2022-07-03T14:41:18;33.28;54.96
63407;SHT31;49543;45.892;10.838;2022-07-03T14:43:44;33.39;54.84
63407;SHT31;49543;45.892;10.838;2022-07-03T14:46:09;33.42;54.72
63407;SHT31;49543;45.892;10.838;2022-07-03T14:48:34;33.48;54.93
63407;SHT31;49543;45.892;10.838;2022-07-03T14:51:00;33.39;55.47
63407;SHT31;49543;45.892;10.838;2022-07-03T14:53:25;33.41;56.14
63407;SHT31;49543;45.892;10.838;2022-07-03T14:55:51;33.45;56.11
63407;SHT31;49543;45.892;10.838;2022-07-03T14:58:19;33.56;55.88
63407;SHT31;49543;45.892;10.838;2022-07-03T15:00:52;33.69;54.99
63407;SHT31;49543;45.892;10.838;2022-07-03T15:03:33;33.62;55.57
63407;SHT31;49543;45.892;10.838;2022-07-03T15:06:07;33.55;55.50
63407;SHT31;49543;45.892;10.838;2022-07-03T15:11:06;33.34;55.83
63407;SHT31;49543;45.892;10.838;2022-07-03T15:13:34;33.19;55.46
63407;SHT31;49543;45.892;10.838;2022-07-03T15:16:00;33.14;56.20
63407;SHT31;49543;45.892;10.838;2022-07-03T15:18:27;33.06;56.32
63407;SHT31;49543;45.892;10.838;2022-07-03T15:20:54;33.06;56.40
63407;SHT31;49543;45.892;10.838;2022-07-03T15:23:20;33.08;55.99
63407;SHT31;49543;45.892;10.838;2022-07-03T15:25:47;33.07;56.32
63407;SHT31;49543;45.892;10.838;2022-07-03T15:28:14;33.10;56.44
63407;SHT31;49543;45.892;10.838;2022-07-03T15:30:47;33.14;56.16
63407;SHT31;49543;45.892;10.838;2022-07-03T15:33:13;33.17;56.89
63407;SHT31;49543;45.892;10.838;2022-07-03T15:35:45;33.17;56.69
63407;SHT31;49543;45.892;10.838;2022-07-03T15:38:14;33.11;55.89
63407;SHT31;49543;45.892;10.838;2022-07-03T15:40:55;32.97;57.18
63407;SHT31;49543;45.892;10.838;2022-07-03T17:17:16;29.81;71.01
63407;SHT31;49543;45.892;10.838;2022-07-03T17:19:56;29.81;70.58
63407;SHT31;49543;45.892;10.838;2022-07-03T17:22:27;29.76;69.66
63407;SHT31;49543;45.892;10.838;2022-07-03T17:24:54;29.71;70.10
63407;SHT31;49543;45.892;10.838;2022-07-03T17:27:24;29.72;68.64
63407;SHT31;49543;45.892;10.838;2022-07-03T17:30:02;29.72;67.19
63407;SHT31;49543;45.892;10.838;2022-07-03T17:32:29;29.79;66.81
63407;SHT31;49543;45.892;10.838;2022-07-03T17:35:00;29.86;68.37
63407;SHT31;49543;45.892;10.838;2022-07-03T17:37:29;29.89;69.33
63407;SHT31;49543;45.892;10.838;2022-07-03T17:39:56;29.79;65.69
63407;SHT31;49543;45.892;10.838;2022-07-03T17:42:23;29.75;67.13
63407;SHT31;49543;45.892;10.838;2022-07-03T17:44:49;29.71;65.81
63407;SHT31;49543;45.892;10.838;2022-07-03T17:47:15;29.69;65.24
63407;SHT31;49543;45.892;10.838;2022-07-03T17:49:44;29.71;67.51
63407;SHT31;49543;45.892;10.838;2022-07-03T17:52:14;29.69;68.99
63407;SHT31;49543;45.892;10.838;2022-07-03T17:54:44;29.74;68.62
63407;SHT31;49543;45.892;10.838;2022-07-03T17:57:14;29.72;69.02
63407;SHT31;49543;45.892;10.838;2022-07-03T17:59:58;29.72;65.04
63407;SHT31;49543;45.892;10.838;2022-07-03T18:02:25;29.74;62.93
63407;SHT31;49543;45.892;10.838;2022-07-03T18:04:53;29.75;63.59
63407;SHT31;49543;45.892;10.838;2022-07-03T18:07:21;29.75;63.47
63407;SHT31;49543;45.892;10.838;2022-07-03T18:09:54;29.81;64.33
63407;SHT31;49543;45.892;10.838;2022-07-03T18:12:24;29.82;63.88
63407;SHT31;49543;45.892;10.838;2022-07-03T18:15:01;29.81;63.57
63407;SHT31;49543;45.892;10.838;2022-07-03T18:17:30;29.76;61.59
63407;SHT31;49543;45.892;10.838;2022-07-03T18:20:00;29.76;62.28
63407;SHT31;49543;45.892;10.838;2022-07-03T18:22:26;29.78;63.77
63407;SHT31;49543;45.892;10.838;2022-07-03T18:24:57;29.78;63.66
63407;SHT31;49543;45.892;10.838;2022-07-03T18:27:23;29.75;60.92
63407;SHT31;49543;45.892;10.838;2022-07-03T18:29:48;29.71;59.77
63407;SHT31;49543;45.892;10.838;2022-07-03T18:32:17;29.69;62.98
63407;SHT31;49543;45.892;10.838;2022-07-03T18:34:45;29.65;61.56
63407;SHT31;49543;45.892;10.838;2022-07-03T18:37:12;29.62;60.80
63407;SHT31;49543;45.892;10.838;2022-07-03T18:39:38;29.64;62.01
63407;SHT31;49543;45.892;10.838;2022-07-03T18:42:04;29.68;58.87
63407;SHT31;49543;45.892;10.838;2022-07-03T18:44:31;29.69;58.96
63407;SHT31;49543;45.892;10.838;2022-07-03T18:46:57;29.75;59.59
63407;SHT31;49543;45.892;10.838;2022-07-03T18:49:23;29.74;59.38
63407;SHT31;49543;45.892;10.838;2022-07-03T18:51:54;29.71;58.78
63407;SHT31;49543;45.892;10.838;2022-07-03T18:54:32;29.69;59.26
63407;SHT31;49543;45.892;10.838;2022-07-03T18:57:03;29.65;61.79
63407;SHT31;49543;45.892;10.838;2022-07-03T19:02:27;29.54;60.09
63407;SHT31;49543;45.892;10.838;2022-07-03T19:04:55;29.48;60.72
63407;SHT31;49543;45.892;10.838;2022-07-03T19:07:35;29.48;60.92
63407;SHT31;49543;45.892;10.838;2022-07-03T19:10:10;29.38;60.28
63407;SHT31;49543;45.892;10.838;2022-07-03T19:12:38;29.38;59.57
63407;SHT31;49543;45.892;10.838;2022-07-03T19:15:05;29.41;60.24
63407;SHT31;49543;45.892;10.838;2022-07-03T19:17:32;29.46;59.77
63407;SHT31;49543;45.892;10.838;2022-07-03T19:19:59;29.47;60.11
63407;SHT31;49543;45.892;10.838;2022-07-03T19:22:24;29.46;60.65
63407;SHT31;49543;45.892;10.838;2022-07-03T19:24:50;29.40;60.79
63407;SHT31;49543;45.892;10.838;2022-07-03T19:27:15;29.35;60.87
63407;SHT31;49543;45.892;10.838;2022-07-03T19:29:42;29.37;62.76
63407;SHT31;49543;45.892;10.838;2022-07-03T19:32:07;29.35;61.40
63407;SHT31;49543;45.892;10.838;2022-07-03T19:34:33;29.34;61.92
63407;SHT31;49543;45.892;10.838;2022-07-03T19:36:59;29.33;61.90
63407;SHT31;49543;45.892;10.838;2022-07-03T19:39:26;29.30;61.92
63407;SHT31;49543;45.892;10.838;2022-07-03T19:41:52;29.28;61.84
63407;SHT31;49543;45.892;10.838;2022-07-03T19:44:17;29.27;61.72
63407;SHT31;49543;45.892;10.838;2022-07-03T19:46:42;29.27;61.60
63407;SHT31;49543;45.892;10.838;2022-07-03T19:49:09;29.23;61.89
63407;SHT31;49543;45.892;10.838;2022-07-03T19:51:35;29.23;60.85
63407;SHT31;49543;45.892;10.838;2022-07-03T19:54:00;29.21;61.01
63407;SHT31;49543;45.892;10.838;2022-07-03T19:56:26;29.27;62.51
63407;SHT31;49543;45.892;10.838;2022-07-03T19:58:51;29.24;61.80
63407;SHT31;49543;45.892;10.838;2022-07-03T20:01:17;29.24;61.74
63407;SHT31;49543;45.892;10.838;2022-07-03T20:03:43;29.19;61.09
63407;SHT31;49543;45.892;10.838;2022-07-03T20:06:08;29.13;61.51
63407;SHT31;49543;45.892;10.838;2022-07-03T20:08:34;29.16;61.05
63407;SHT31;49543;45.892;10.838;2022-07-03T20:11:02;29.16;60.09
63407;SHT31;49543;45.892;10.838;2022-07-03T20:13:28;29.23;59.06
63407;SHT31;49543;45.892;10.838;2022-07-03T20:15:53;29.27;59.73
63407;SHT31;49543;45.892;10.838;2022-07-03T20:18:19;29.37;59.39
63407;SHT31;49543;45.892;10.838;2022-07-03T20:20:44;29.43;58.57
63407;SHT31;49543;45.892;10.838;2022-07-03T20:23:10;29.50;59.67
63407;SHT31;49543;45.892;10.838;2022-07-03T20:25:36;29.44;59.40
63407;SHT31;49543;45.892;10.838;2022-07-03T20:28:07;29.44;59.71
63407;SHT31;49543;45.892;10.838;2022-07-03T20:30:33;29.37;60.87
63407;SHT31;49543;45.892;10.838;2022-07-03T20:32:58;29.14;60.29
63407;SHT31;49543;45.892;10.838;2022-07-03T20:35:26;29.03;61.41
63407;SHT31;49543;45.892;10.838;2022-07-03T20:37:53;29.02;62.04
63407;SHT31;49543;45.892;10.838;2022-07-03T20:40:19;29.10;61.16
63407;SHT31;49543;45.892;10.838;2022-07-03T20:42:44;29.10;60.92
63407;SHT31;49543;45.892;10.838;2022-07-03T20:45:10;29.07;62.02
63407;SHT31;49543;45.892;10.838;2022-07-03T20:47:37;29.10;62.21
63407;SHT31;49543;45.892;10.838;2022-07-03T20:50:02;29.17;62.74
63407;SHT31;49543;45.892;10.838;2022-07-03T20:52:28;29.07;61.37
63407;SHT31;49543;45.892;10.838;2022-07-03T20:54:54;29.02;61.62
63407;SHT31;49543;45.892;10.838;2022-07-03T20:57:19;28.96;62.28
63407;SHT31;49543;45.892;10.838;2022-07-03T20:59:45;28.98;62.85
63407;SHT31;49543;45.892;10.838;2022-07-03T21:02:12;28.95;62.12
63407;SHT31;49543;45.892;10.838;2022-07-03T21:04:37;28.93;62.09
63407;SHT31;49543;45.892;10.838;2022-07-03T21:07:03;28.89;62.27
63407;SHT31;49543;45.892;10.838;2022-07-03T21:09:30;28.93;61.79
63407;SHT31;49543;45.892;10.838;2022-07-03T21:11:57;28.92;61.73
63407;SHT31;49543;45.892;10.838;2022-07-03T21:14:22;28.95;62.05
63407;SHT31;49543;45.892;10.838;2022-07-03T21:16:51;28.95;61.75
63407;SHT31;49543;45.892;10.838;2022-07-03T21:19:19;28.90;62.30
63407;SHT31;49543;45.892;10.838;2022-07-03T21:21:45;28.86;62.23
